Time;durP1;ratioP1;P1;durP2;ratioP2;P2;SDS_P1;SDS_P2;PMS_P1;PMS_P2;Temp;Humidity;BMP_temperature;BMP_pressure;BME280_temperature;BME280_humidity;BME280_pressure;Samples;Min_cycle;Max_cycle;Signal;HPM_P1;HPM_P2
2021/11/02 00:02:15;;;;;;;8.50;7.57;;;8.20;85.90;;;;;;5026380;28;20467;-43
2021/11/02 00:04:42;;;;;;;8.73;6.80;;;8.20;85.90;;;;;;5027733;28;20707;-43
2021/11/02 00:07:08;;;;;;;9.60;6.90;;;8.20;85.90;;;;;;5029955;28;20483;-43
2021/11/02 00:09:37;;;;;;;9.47;6.20;;;8.20;86.00;;;;;;5028658;28;20598;-43
2021/11/02 00:12:05;;;;;;;6.40;5.60;;;8.20;85.80;;;;;;5026890;28;20977;-43
2021/11/02 00:14:32;;;;;;;10.73;7.83;;;8.20;85.90;;;;;;5021567;28;20477;-43
2021/11/02 00:17:05;;;;;;;10.80;8.07;;;8.20;85.60;;;;;;5025929;28;20468;-43
2021/11/02 00:19:32;;;;;;;8.43;7.20;;;8.20;85.70;;;;;;5025335;28;20447;-43
2021/11/02 00:22:09;;;;;;;10.53;7.17;;;8.10;85.80;;;;;;5028922;28;20458;-43
2021/11/02 00:27:03;;;;;;;7.97;7.13;;;8.10;86.10;;;;;;5027431;28;21172;-41
2021/11/02 00:29:29;;;;;;;8.67;6.70;;;8.10;86.40;;;;;;5023516;28;21081;-41
2021/11/02 00:31:56;;;;;;;7.80;6.33;;;8.10;86.40;;;;;;5028559;28;20890;-41
2021/11/02 00:34:23;;;;;;;9.63;6.97;;;8.10;86.60;;;;;;5021887;28;20510;-41
2021/11/02 00:36:50;;;;;;;12.20;7.80;;;8.10;86.70;;;;;;5024949;28;20459;-41
2021/11/02 00:39:16;;;;;;;8.00;6.50;;;8.10;86.80;;;;;;5028295;28;20471;-42
2021/11/02 00:41:43;;;;;;;10.17;7.13;;;8.10;86.90;;;;;;5007709;28;20985;-41
2021/11/02 00:44:10;;;;;;;9.60;7.37;;;8.10;87.00;;;;;;5028072;28;20464;-41
2021/11/02 00:46:36;;;;;;;13.60;7.80;;;8.10;87.10;;;;;;5022314;28;20511;-41
2021/11/02 00:49:05;;;;;;;12.83;8.73;;;8.10;87.20;;;;;;5010348;28;20545;-41
2021/11/02 00:51:32;;;;;;;13.27;7.93;;;8.10;87.30;;;;;;5025202;28;20997;-41
2021/11/02 00:53:59;;;;;;;10.97;8.07;;;8.10;87.50;;;;;;5024352;28;20459;-41
2021/11/02 00:56:25;;;;;;;10.70;7.97;;;8.20;87.60;;;;;;5022667;28;20471;-41
2021/11/02 00:58:52;;;;;;;10.70;8.97;;;8.20;87.60;;;;;;5030408;28;20458;-41
2021/11/02 01:01:19;;;;;;;13.27;8.63;;;8.20;87.70;;;;;;5005078;28;20463;-41
2021/11/02 01:03:46;;;;;;;11.87;7.83;;;8.20;87.80;;;;;;5007092;28;20901;-41
2021/11/02 01:06:12;;;;;;;9.83;7.10;;;8.20;87.90;;;;;;5010882;28;20494;-41
2021/11/02 01:08:39;;;;;;;14.50;9.73;;;8.20;88.00;;;;;;5011640;28;20498;-41
2021/11/02 01:11:06;;;;;;;11.03;8.90;;;8.30;88.20;;;;;;5026619;28;20898;-41
2021/11/02 01:13:34;;;;;;;12.17;9.40;;;8.30;88.10;;;;;;5009484;28;20460;-41
2021/11/02 01:16:02;;;;;;;14.37;9.20;;;8.20;88.20;;;;;;5009413;28;20463;-41
2021/11/02 01:18:28;;;;;;;9.83;7.37;;;8.30;88.30;;;;;;5029292;28;20462;-41
2021/11/02 01:20:55;;;;;;;15.53;7.97;;;8.30;88.40;;;;;;5029978;28;20547;-41
2021/11/02 01:23:22;;;;;;;10.10;8.23;;;8.30;88.50;;;;;;5031573;28;20913;-41
2021/11/02 01:25:49;;;;;;;14.73;7.90;;;8.30;88.50;;;;;;5026762;28;20460;-41
2021/11/02 01:28:16;;;;;;;9.60;7.80;;;8.30;88.70;;;;;;5022476;28;20483;-41
2021/11/02 01:30:44;;;;;;;12.87;8.60;;;8.30;88.60;;;;;;5013420;28;20443;-40
2021/11/02 01:33:11;;;;;;;10.70;8.07;;;8.30;88.70;;;;;;5026765;28;20453;-40
2021/11/02 01:35:37;;;;;;;8.17;7.27;;;8.40;89.00;;;;;;5023259;28;20456;-40
2021/11/02 01:38:05;;;;;;;8.57;7.67;;;8.40;88.80;;;;;;5025633;28;20468;-40
2021/11/02 01:40:33;;;;;;;8.80;6.97;;;8.40;88.90;;;;;;5028062;28;20481;-41
2021/11/02 01:43:00;;;;;;;12.00;8.77;;;8.40;89.00;;;;;;5032391;28;20473;-41
2021/11/02 01:45:27;;;;;;;9.63;7.73;;;8.40;89.10;;;;;;5030353;28;20823;-41
2021/11/02 01:47:55;;;;;;;9.10;7.77;;;8.40;89.10;;;;;;5027078;28;20483;-41
2021/11/02 01:50:23;;;;;;;11.27;8.40;;;8.50;89.20;;;;;;5031040;28;20454;-42
2021/11/02 01:52:49;;;;;;;10.97;8.03;;;8.50;89.20;;;;;;5020971;28;20451;-42
2021/11/02 01:55:17;;;;;;;14.60;9.20;;;8.50;89.30;;;;;;5043289;28;20454;-42
2021/11/02 01:57:46;;;;;;;17.20;8.70;;;8.60;89.30;;;;;;5024864;28;20455;-42
2021/11/02 02:00:16;;;;;;;11.00;9.60;;;8.60;89.30;;;;;;5039928;28;20467;-42
2021/11/02 02:03:02;;;;;;;11.20;9.00;;;8.60;89.30;;;;;;5039849;28;20569;-43
2021/11/02 02:05:54;;;;;;;12.23;9.43;;;8.60;89.30;;;;;;5042693;28;20456;-42
2021/11/02 02:08:24;;;;;;;9.97;8.23;;;8.60;89.50;;;;;;5040100;28;20464;-43
2021/11/02 02:11:09;;;;;;;11.70;8.30;;;8.60;89.40;;;;;;5022502;28;20538;-43
2021/11/02 02:13:45;;;;;;;11.87;8.03;;;8.60;89.50;;;;;;5038935;28;20455;-42
2021/11/02 02:16:18;;;;;;;13.20;7.87;;;8.70;89.20;;;;;;5031123;28;20835;-42
2021/11/02 02:19:03;;;;;;;12.13;9.07;;;8.70;89.20;;;;;;5038551;28;20464;-42
2021/11/02 02:21:50;;;;;;;14.00;10.90;;;8.70;89.30;;;;;;5043527;28;20543;-42
2021/11/02 02:24:20;;;;;;;13.87;9.20;;;8.70;89.50;;;;;;5040607;28;20465;-43
2021/11/02 02:27:17;;;;;;;12.57;9.00;;;8.70;89.50;;;;;;5040826;28;20479;-43
2021/11/02 02:29:45;;;;;;;13.03;9.87;;;8.70;89.50;;;;;;5035813;28;20479;-43
2021/11/02 02:32:16;;;;;;;12.33;8.33;;;8.70;89.60;;;;;;5036887;28;20464;-42
2021/11/02 02:34:50;;;;;;;15.50;9.93;;;8.70;89.50;;;;;;5024115;28;20844;-42
2021/11/02 02:37:19;;;;;;;11.60;8.90;;;8.80;89.30;;;;;;5041042;28;20547;-43
2021/11/02 02:39:47;;;;;;;10.20;8.50;;;8.80;89.10;;;;;;5023359;28;20463;-42
2021/11/02 02:42:19;;;;;;;8.60;7.80;;;8.80;89.20;;;;;;5026675;28;20488;-42
2021/11/02 02:44:50;;;;;;;9.33;8.23;;;8.80;89.20;;;;;;5023998;28;20822;-42
2021/11/02 02:47:18;;;;;;;8.00;7.20;;;8.70;89.20;;;;;;5040829;28;20475;-42
2021/11/02 02:49:47;;;;;;;11.33;9.40;;;8.70;89.30;;;;;;5032817;28;20459;-42
2021/11/02 02:52:15;;;;;;;9.03;7.90;;;8.70;89.50;;;;;;5030468;28;20484;-42
2021/11/02 02:54:45;;;;;;;9.57;7.93;;;8.70;89.50;;;;;;5016806;28;20458;-42
2021/11/02 02:57:13;;;;;;;12.20;8.33;;;8.70;89.60;;;;;;5024081;28;20960;-41
2021/11/02 02:59:41;;;;;;;11.13;7.70;;;8.70;89.50;;;;;;5030230;28;20464;-41
2021/11/02 03:02:12;;;;;;;9.57;8.27;;;8.70;89.60;;;;;;5022500;28;20464;-41
2021/11/02 03:04:44;;;;;;;10.60;8.07;;;8.70;89.60;;;;;;5024652;28;20468;-41
2021/11/02 03:07:11;;;;;;;12.13;8.63;;;8.70;89.60;;;;;;5006160;28;20483;-41
2021/11/02 03:09:44;;;;;;;7.07;6.37;;;8.70;89.50;;;;;;5026977;28;20463;-41
2021/11/02 03:12:13;;;;;;;8.67;7.67;;;8.70;89.50;;;;;;5028137;28;20461;-41
2021/11/02 03:14:55;;;;;;;9.90;7.50;;;8.70;89.40;;;;;;5013512;28;20467;-41
2021/11/02 03:17:26;;;;;;;9.70;7.93;;;8.70;89.50;;;;;;5029180;28;20873;-41
2021/11/02 03:20:41;;;;;;;8.57;7.67;;;8.70;89.50;;;;;;5009493;28;20472;-41
2021/11/02 03:56:17;;;;;;;8.60;7.73;;;8.80;89.80;;;;;;5029717;28;20470;-41
2021/11/02 03:59:03;;;;;;;12.87;9.20;;;8.80;89.80;;;;;;5028803;28;20461;-41
2021/11/02 04:32:07;;;;;;;7.17;5.67;;;9.00;89.70;;;;;;5028238;28;20554;-43
2021/11/02 04:43:02;;;;;;;5.90;5.40;;;9.00;89.50;;;;;;5025992;28;20560;-43
2021/11/02 04:48:35;;;;;;;6.93;4.37;;;9.00;89.80;;;;;;5024741;28;20544;-43
2021/11/02 05:07:33;;;;;;;6.00;4.00;;;9.10;89.20;;;;;;5033794;28;20920;-43
2021/11/02 05:59:24;;;;;;;11.73;8.87;;;9.20;89.20;;;;;;5036070;28;20470;-43
2021/11/02 06:10:15;;;;;;;11.50;8.57;;;9.10;89.10;;;;;;5039994;28;20542;-43
2021/11/02 06:29:30;;;;;;;12.63;9.47;;;9.10;89.00;;;;;;5040477;28;20498;-43
2021/11/02 06:32:04;;;;;;;17.67;9.90;;;9.10;89.00;;;;;;5013004;28;20460;-43
2021/11/02 06:37:24;;;;;;;11.87;9.30;;;9.00;88.90;;;;;;5034885;28;20495;-43
2021/11/02 06:42:51;;;;;;;14.33;9.23;;;9.00;89.00;;;;;;5025125;28;20937;-43
2021/11/02 06:48:23;;;;;;;12.20;7.40;;;9.00;88.80;;;;;;5043206;28;20478;-42
2021/11/02 07:15:26;;;;;;;10.67;7.83;;;8.80;88.30;;;;;;5049279;28;20462;-43
2021/11/02 07:19:22;;;;;;;10.67;7.50;;;8.90;88.00;;;;;;5044274;28;20537;-42
2021/11/02 07:27:33;;;;;;;10.43;7.00;;;8.90;87.70;;;;;;5040912;28;20470;-42
2021/11/02 08:48:29;;;;;;;10.97;8.30;;;9.40;89.10;;;;;;5048215;28;20486;-43
2021/11/02 08:50:59;;;;;;;14.20;9.23;;;9.40;89.30;;;;;;5045699;28;21308;-43
2021/11/02 08:53:27;;;;;;;20.73;11.77;;;9.50;89.40;;;;;;5044375;28;20514;-43
2021/11/02 08:55:55;;;;;;;23.10;14.07;;;9.60;89.30;;;;;;5042969;28;20451;-43
2021/11/02 08:58:27;;;;;;;25.87;14.87;;;9.70;89.30;;;;;;5042076;28;20458;-42
2021/11/02 09:00:56;;;;;;;18.47;12.13;;;9.80;89.40;;;;;;5049900;28;20499;-44
2021/11/02 09:03:29;;;;;;;18.23;10.37;;;9.90;89.40;;;;;;5036914;28;20977;-43
2021/11/02 09:06:05;;;;;;;14.40;9.97;;;10.00;89.10;;;;;;5026892;28;20910;-42
2021/11/02 09:08:39;;;;;;;31.20;16.60;;;10.10;88.80;;;;;;5027135;28;20470;-42
2021/11/02 09:11:07;;;;;;;22.23;13.47;;;10.20;88.50;;;;;;5044762;28;20457;-42
2021/11/02 09:13:35;;;;;;;17.20;11.43;;;10.20;88.60;;;;;;5027501;28;20630;-43
2021/11/02 09:16:03;;;;;;;15.30;10.90;;;10.30;88.50;;;;;;5045619;28;20446;-43
2021/11/02 09:18:30;;;;;;;20.90;11.97;;;10.30;88.20;;;;;;5031028;28;20494;-43
2021/11/02 09:20:58;;;;;;;11.50;9.13;;;10.40;88.10;;;;;;5041894;28;20519;-43
2021/11/02 09:23:28;;;;;;;21.83;12.10;;;10.40;88.10;;;;;;5040814;28;20463;-43
2021/11/02 09:25:56;;;;;;;16.00;10.10;;;10.50;88.00;;;;;;5042080;28;20464;-43
2021/11/02 09:28:25;;;;;;;14.23;9.17;;;10.50;88.00;;;;;;5028740;28;20502;-43
2021/11/02 09:30:53;;;;;;;9.47;8.17;;;10.60;88.10;;;;;;5045116;28;21008;-43
2021/11/02 09:33:21;;;;;;;8.13;7.03;;;10.70;87.70;;;;;;5041249;28;20453;-43
2021/11/02 09:36:01;;;;;;;10.00;6.10;;;10.80;87.80;;;;;;5041626;28;20468;-43
2021/11/02 09:39:14;;;;;;;7.60;5.73;;;10.90;86.60;;;;;;5042449;28;20518;-43
2021/11/02 09:41:47;;;;;;;6.00;4.87;;;11.00;85.00;;;;;;5036132;28;20472;-43
2021/11/02 09:44:36;;;;;;;7.07;5.43;;;10.90;85.40;;;;;;5040859;28;20473;-43
2021/11/02 09:47:13;;;;;;;6.00;5.13;;;11.00;85.40;;;;;;5030286;28;20554;-41
2021/11/02 09:50:14;;;;;;;8.00;5.93;;;11.00;85.60;;;;;;5025643;28;20922;-42
2021/11/02 09:53:13;;;;;;;9.27;5.73;;;11.00;85.30;;;;;;5008429;28;20463;-42
2021/11/02 09:56:22;;;;;;;7.77;5.40;;;11.10;85.10;;;;;;5032835;28;20997;-42
2021/11/02 09:59:09;;;;;;;8.83;5.27;;;11.10;85.20;;;;;;5024054;28;20467;-42
2021/11/02 10:02:03;;;;;;;6.30;5.07;;;11.10;85.20;;;;;;5013770;28;20776;-42
2021/11/02 10:04:37;;;;;;;9.43;5.90;;;11.10;84.90;;;;;;5017012;28;20475;-42
2021/11/02 10:07:35;;;;;;;5.70;4.20;;;11.20;84.80;;;;;;5026962;28;20454;-42
2021/11/02 10:10:13;;;;;;;6.30;4.70;;;11.20;84.40;;;;;;5004300;28;20495;-42
2021/11/02 10:12:59;;;;;;;6.77;5.00;;;11.20;84.30;;;;;;5026495;28;20492;-42
2021/11/02 10:15:39;;;;;;;9.17;5.30;;;11.30;83.80;;;;;;5022910;28;21505;-42
2021/11/02 10:18:18;;;;;;;7.20;5.40;;;11.20;83.90;;;;;;5031444;28;20450;-42
2021/11/02 10:21:33;;;;;;;6.63;5.67;;;11.20;84.10;;;;;;5033790;28;20460;-42
2021/11/02 10:24:22;;;;;;;7.93;5.60;;;11.20;84.30;;;;;;5020483;28;20463;-42
2021/11/02 10:27:20;;;;;;;6.80;4.40;;;11.20;84.70;;;;;;5026107;28;20985;-42
2021/11/02 10:30:07;;;;;;;5.83;4.90;;;11.20;85.00;;;;;;5026478;28;20491;-42
2021/11/02 10:32:40;;;;;;;9.37;6.17;;;11.20;85.20;;;;;;5012127;28;20773;-42
2021/11/02 10:35:26;;;;;;;6.10;5.37;;;11.10;85.60;;;;;;5028701;28;20443;-42
2021/11/02 10:38:09;;;;;;;9.90;4.23;;;11.10;85.80;;;;;;5029592;28;20814;-42
2021/11/02 10:40:42;;;;;;;9.20;4.43;;;11.00;86.60;;;;;;5024620;28;20823;-42
2021/11/02 10:43:27;;;;;;;9.43;3.60;;;11.00;86.80;;;;;;5034594;28;20464;-42
2021/11/02 10:46:04;;;;;;;4.77;3.27;;;11.00;87.00;;;;;;5032366;28;20497;-42
2021/11/02 10:48:41;;;;;;;4.53;2.60;;;10.90;87.10;;;;;;5030650;28;20490;-42
2021/11/02 10:51:17;;;;;;;3.30;3.00;;;10.90;87.30;;;;;;5030256;28;20461;-42
2021/11/02 10:53:57;;;;;;;4.30;3.57;;;10.80;87.60;;;;;;5030542;28;20452;-41
2021/11/02 10:56:52;;;;;;;6.03;4.00;;;10.80;87.60;;;;;;5030837;28;20537;-41
2021/11/02 10:59:22;;;;;;;9.40;3.90;;;10.70;87.90;;;;;;5031053;28;20460;-41
2021/11/02 11:01:51;;;;;;;4.57;4.00;;;10.70;88.10;;;;;;5030184;28;20495;-41
2021/11/02 11:04:20;;;;;;;3.57;3.27;;;10.70;88.20;;;;;;5028256;28;20842;-41
2021/11/02 11:06:48;;;;;;;3.47;3.17;;;10.60;88.70;;;;;;5033008;28;21107;-41
2021/11/02 11:09:18;;;;;;;4.80;3.47;;;10.60;88.90;;;;;;5031411;28;20863;-41
2021/11/02 11:11:53;;;;;;;5.33;4.13;;;10.60;89.00;;;;;;5024399;28;20467;-41
2021/11/02 11:14:28;;;;;;;4.13;3.33;;;10.60;89.00;;;;;;5009469;28;20491;-41
2021/11/02 11:16:57;;;;;;;5.63;3.33;;;10.60;89.10;;;;;;5030254;28;20455;-41
2021/11/02 11:19:29;;;;;;;4.13;3.17;;;10.60;89.20;;;;;;5028291;28;20955;-41
2021/11/02 11:21:59;;;;;;;5.10;3.70;;;10.50;89.40;;;;;;5030039;28;20494;-41
2021/11/02 11:24:34;;;;;;;3.73;3.30;;;10.50;89.50;;;;;;5024499;28;20464;-41
2021/11/02 11:27:09;;;;;;;5.60;2.80;;;10.40;89.60;;;;;;5027929;28;20923;-41
2021/11/02 11:29:45;;;;;;;4.80;3.00;;;10.50;89.60;;;;;;5030622;28;20728;-41
2021/11/02 11:32:14;;;;;;;7.03;3.53;;;10.40;89.70;;;;;;5031368;28;20455;-41
2021/11/02 11:34:45;;;;;;;4.87;3.17;;;10.50;89.70;;;;;;5014351;28;20822;-41
2021/11/02 11:37:13;;;;;;;3.70;3.40;;;10.50;89.70;;;;;;5012454;28;20491;-42
2021/11/02 11:39:42;;;;;;;3.70;3.20;;;10.60;89.60;;;;;;5026118;28;20451;-42
2021/11/02 11:42:15;;;;;;;6.93;3.23;;;10.60;89.60;;;;;;5029579;28;20447;-42
2021/11/02 11:44:48;;;;;;;4.20;2.80;;;10.60;89.50;;;;;;5022947;28;20968;-42
2021/11/02 11:47:23;;;;;;;5.10;3.10;;;10.60;89.80;;;;;;5022225;28;20510;-42
2021/11/02 11:49:51;;;;;;;6.00;2.87;;;10.60;89.80;;;;;;5026384;28;20493;-42
2021/11/02 11:52:25;;;;;;;4.57;2.90;;;10.60;89.70;;;;;;5001573;28;20467;-42
2021/11/02 11:54:56;;;;;;;3.10;2.80;;;10.60;89.80;;;;;;5005236;28;20461;-42
2021/11/02 11:57:32;;;;;;;2.90;2.70;;;10.60;89.80;;;;;;4998136;28;20523;-42
2021/11/02 12:00:05;;;;;;;4.87;3.20;;;10.60;89.80;;;;;;5014556;28;20455;-42
2021/11/02 12:02:57;;;;;;;3.73;3.43;;;10.60;89.80;;;;;;5026797;28;20517;-42
2021/11/02 12:05:25;;;;;;;4.67;2.80;;;10.60;89.80;;;;;;5022151;28;20529;-42
2021/11/02 12:08:15;;;;;;;4.97;3.50;;;10.60;89.80;;;;;;5028197;28;20469;-42
2021/11/02 12:10:45;;;;;;;8.50;3.30;;;10.70;89.70;;;;;;5029151;28;20455;-42
2021/11/02 12:13:13;;;;;;;3.30;3.00;;;10.70;89.60;;;;;;5028291;28;20544;-42
2021/11/02 12:16:10;;;;;;;3.67;2.63;;;10.60;89.80;;;;;;5023718;28;20492;-42
2021/11/02 12:18:43;;;;;;;3.53;3.17;;;10.60;89.80;;;;;;5016756;28;21037;-42
2021/11/02 12:21:19;;;;;;;4.23;2.50;;;10.60;89.60;;;;;;5023373;28;20957;-42
2021/11/02 12:23:49;;;;;;;5.57;2.10;;;10.60;89.70;;;;;;5009596;28;20558;-42
2021/11/02 12:26:17;;;;;;;0.90;0.57;;;10.60;89.10;;;;;;5016611;28;20499;-41
2021/11/02 12:28:46;;;;;;;0.80;0.67;;;10.60;86.50;;;;;;5020081;28;20492;-42
2021/11/02 12:31:18;;;;;;;0.57;0.40;;;10.50;86.10;;;;;;5025355;28;20464;-42
2021/11/02 12:33:52;;;;;;;1.83;0.60;;;10.40;86.50;;;;;;5027094;28;20491;-42
2021/11/02 12:36:21;;;;;;;0.63;0.63;;;10.40;86.80;;;;;;5023672;28;20469;-42
2021/11/02 12:38:57;;;;;;;0.47;0.47;;;10.40;87.70;;;;;;5008868;28;20460;-42
2021/11/02 12:41:25;;;;;;;1.50;0.53;;;10.40;87.00;;;;;;5026192;28;21017;-42
2021/11/02 12:44:03;;;;;;;0.97;0.40;;;10.40;86.90;;;;;;5033348;28;20961;-42
2021/11/02 12:46:32;;;;;;;2.47;0.50;;;10.30;85.80;;;;;;5025720;28;20456;-42
2021/11/02 12:49:06;;;;;;;0.87;0.40;;;10.30;86.20;;;;;;5024346;28;20494;-42
2021/11/02 12:51:39;;;;;;;2.53;0.50;;;10.30;87.30;;;;;;5024650;28;20446;-42
2021/11/02 12:54:11;;;;;;;1.30;0.80;;;10.30;87.50;;;;;;5022420;28;20451;-42
2021/11/02 12:56:40;;;;;;;0.70;0.37;;;10.30;87.00;;;;;;5026595;28;20456;-42
2021/11/02 12:59:16;;;;;;;0.50;0.50;;;10.30;87.00;;;;;;5032154;28;20546;-42
2021/11/02 13:01:44;;;;;;;0.50;0.50;;;10.30;87.10;;;;;;5025918;28;20451;-42
2021/11/02 13:04:11;;;;;;;1.00;0.60;;;10.30;87.60;;;;;;5024687;28;20475;-42
2021/11/02 13:06:46;;;;;;;0.50;0.50;;;10.30;87.20;;;;;;5027702;28;20455;-42
2021/11/02 13:09:33;;;;;;;1.57;0.50;;;10.30;87.50;;;;;;5011010;28;21086;-42
2021/11/02 13:12:05;;;;;;;0.60;0.50;;;10.20;88.00;;;;;;5009779;28;20487;-42
2021/11/02 13:14:44;;;;;;;0.80;0.70;;;10.20;88.40;;;;;;5015643;28;20451;-42
2021/11/02 13:17:16;;;;;;;1.53;1.37;;;10.30;88.20;;;;;;5031539;28;20445;-42
2021/11/02 13:19:46;;;;;;;1.90;1.50;;;10.30;88.40;;;;;;5030868;28;20551;-42
2021/11/02 13:22:15;;;;;;;1.50;1.40;;;10.30;88.50;;;;;;5035291;28;20466;-42
2021/11/02 13:25:05;;;;;;;1.70;1.50;;;10.30;88.40;;;;;;5027162;28;20474;-42
2021/11/02 13:27:47;;;;;;;2.53;2.33;;;10.30;88.60;;;;;;5027585;28;20456;-42
2021/11/02 13:30:31;;;;;;;2.23;2.03;;;10.30;88.60;;;;;;5032725;28;20601;-42
2021/11/02 13:33:17;;;;;;;1.17;1.00;;;10.30;88.30;;;;;;5030523;28;20463;-42
2021/11/02 13:35:48;;;;;;;2.07;1.27;;;10.30;88.00;;;;;;5032652;28;20458;-42
2021/11/02 13:38:19;;;;;;;1.90;0.90;;;10.30;88.30;;;;;;5028776;28;21317;-42
2021/11/02 13:40:46;;;;;;;0.77;0.77;;;10.20;88.10;;;;;;5015032;28;20443;-42
2021/11/02 13:43:31;;;;;;;1.10;1.00;;;10.20;88.20;;;;;;5032255;28;20455;-42
2021/11/02 13:45:58;;;;;;;3.13;1.63;;;10.20;88.30;;;;;;5011478;28;20481;-42
2021/11/02 13:48:26;;;;;;;0.90;0.90;;;10.20;88.70;;;;;;5026204;28;20848;-42
2021/11/02 13:50:56;;;;;;;1.23;0.97;;;10.20;88.20;;;;;;5028384;28;21099;-42
2021/11/02 13:53:23;;;;;;;1.57;1.27;;;10.20;88.30;;;;;;5030296;28;20461;-42
2021/11/02 13:55:51;;;;;;;1.80;1.30;;;10.20;88.80;;;;;;5023559;28;20938;-42
2021/11/02 13:58:18;;;;;;;2.93;1.10;;;10.10;89.20;;;;;;5026547;28;20448;-42
2021/11/02 14:00:45;;;;;;;2.07;1.20;;;10.20;89.10;;;;;;5027045;28;20465;-42
2021/11/02 14:03:19;;;;;;;2.03;1.57;;;10.20;89.20;;;;;;5006471;28;20521;-42
2021/11/02 14:05:47;;;;;;;1.87;1.00;;;10.20;88.90;;;;;;5011973;28;20456;-42
2021/11/02 14:08:21;;;;;;;1.20;1.10;;;10.10;89.20;;;;;;5021821;28;20460;-42
2021/11/02 14:10:56;;;;;;;1.30;1.20;;;10.10;89.20;;;;;;5017472;28;20576;-40
2021/11/02 14:13:42;;;;;;;1.87;1.40;;;10.10;89.30;;;;;;5027218;28;21132;-42
2021/11/02 14:16:11;;;;;;;1.50;1.40;;;10.10;89.20;;;;;;5032356;28;20556;-42
2021/11/02 14:18:41;;;;;;;1.97;1.80;;;10.10;89.20;;;;;;5023425;28;20867;-42
2021/11/02 14:21:09;;;;;;;1.57;1.47;;;10.10;89.40;;;;;;5005533;28;21015;-42
2021/11/02 14:23:42;;;;;;;3.87;2.80;;;10.10;89.60;;;;;;5020019;28;20956;-42
2021/11/02 14:26:35;;;;;;;2.10;2.00;;;10.20;89.20;;;;;;5027565;28;20466;-42
2021/11/02 14:29:07;;;;;;;2.43;2.23;;;10.10;89.20;;;;;;5019320;28;20495;-41
2021/11/02 14:31:40;;;;;;;1.97;1.73;;;10.10;89.50;;;;;;5023659;28;20458;-41
2021/11/02 14:34:26;;;;;;;1.40;1.30;;;10.10;89.70;;;;;;5022365;28;20527;-41
2021/11/02 14:37:19;;;;;;;2.20;1.20;;;10.10;89.50;;;;;;5024681;28;20547;-41
2021/11/02 14:40:05;;;;;;;0.83;0.83;;;10.20;89.30;;;;;;5019797;28;20466;-41
2021/11/02 14:42:39;;;;;;;1.70;1.27;;;10.10;89.60;;;;;;5018763;28;20490;-41
2021/11/02 14:45:11;;;;;;;2.40;1.50;;;10.10;89.80;;;;;;5029634;28;20455;-41
2021/11/02 14:47:38;;;;;;;1.97;1.77;;;10.20;89.80;;;;;;5006904;28;20498;-41
2021/11/02 14:50:32;;;;;;;1.53;1.20;;;10.20;89.80;;;;;;5024471;28;21082;-41
2021/11/02 14:53:17;;;;;;;1.40;1.30;;;10.20;89.70;;;;;;5026837;28;20458;-41
2021/11/02 14:55:50;;;;;;;1.80;1.57;;;10.20;89.80;;;;;;5026388;28;20819;-41
2021/11/02 14:58:39;;;;;;;3.20;2.50;;;10.20;89.80;;;;;;5026772;28;20452;-41
2021/11/02 15:01:06;;;;;;;1.60;1.50;;;10.20;89.80;;;;;;5011312;28;20466;-41
2021/11/02 15:03:38;;;;;;;2.33;1.80;;;10.30;89.80;;;;;;5025364;28;20558;-41
2021/11/02 15:06:06;;;;;;;1.23;1.13;;;10.30;89.80;;;;;;5028071;28;20478;-41
2021/11/02 15:08:36;;;;;;;5.40;4.40;;;10.40;89.50;;;;;;5028668;28;20513;-41
2021/11/02 15:11:10;;;;;;;2.43;1.40;;;10.40;88.60;;;;;;5025760;28;20585;-41
2021/11/02 15:13:51;;;;;;;0.90;0.90;;;10.40;87.50;;;;;;5024890;28;20460;-41
2021/11/02 15:16:19;;;;;;;0.97;0.80;;;10.30;87.40;;;;;;5033860;28;20451;-41
2021/11/02 15:18:52;;;;;;;0.57;0.57;;;10.30;87.40;;;;;;5009389;28;20476;-41
2021/11/02 15:21:39;;;;;;;0.70;0.70;;;10.30;86.30;;;;;;5027204;28;20475;-41
2021/11/02 15:24:28;;;;;;;0.67;0.67;;;10.30;86.80;;;;;;5027871;28;20474;-41
2021/11/02 15:27:14;;;;;;;0.73;0.67;;;10.20;87.50;;;;;;5027228;28;20892;-41
2021/11/02 15:29:50;;;;;;;1.03;1.03;;;10.20;86.80;;;;;;5026953;28;20889;-41
2021/11/02 15:32:26;;;;;;;1.10;0.80;;;10.20;87.10;;;;;;5026035;28;20461;-41
2021/11/02 15:34:57;;;;;;;0.93;0.93;;;10.10;87.30;;;;;;5028260;28;21580;-41
2021/11/02 15:37:35;;;;;;;0.90;0.90;;;10.10;87.80;;;;;;5028261;28;20761;-41
2021/11/02 15:40:24;;;;;;;0.90;0.90;;;10.10;88.00;;;;;;5026879;28;20459;-41
2021/11/02 15:42:57;;;;;;;1.20;0.80;;;10.10;88.20;;;;;;5005672;28;20463;-41
2021/11/02 15:45:39;;;;;;;1.50;1.40;;;10.10;88.30;;;;;;5025299;28;20459;-41
2021/11/02 15:48:12;;;;;;;2.57;1.20;;;10.00;88.50;;;;;;5025022;28;20475;-41
2021/11/02 15:50:48;;;;;;;0.70;0.70;;;10.00;88.70;;;;;;5008268;28;20573;-41
2021/11/02 15:53:18;;;;;;;1.30;1.20;;;10.00;88.80;;;;;;5012259;28;20447;-41
2021/11/02 15:55:58;;;;;;;0.70;0.70;;;10.00;88.80;;;;;;5027915;28;20463;-41
2021/11/02 15:58:29;;;;;;;2.97;1.27;;;10.00;88.90;;;;;;5011782;28;20827;-41
2021/11/02 16:00:55;;;;;;;3.70;2.40;;;10.00;89.00;;;;;;5023486;28;20603;-41
2021/11/02 16:03:31;;;;;;;1.90;1.70;;;10.00;88.90;;;;;;5009433;28;20568;-41
2021/11/02 16:05:58;;;;;;;2.47;2.13;;;10.00;89.10;;;;;;5023010;28;20477;-41
2021/11/02 16:08:25;;;;;;;1.93;1.73;;;10.00;88.90;;;;;;5021353;28;20460;-41
2021/11/02 16:10:53;;;;;;;1.57;1.30;;;10.00;89.10;;;;;;5031530;28;20868;-41
2021/11/02 16:13:28;;;;;;;1.70;1.40;;;10.00;89.10;;;;;;5008664;28;20463;-41
2021/11/02 16:15:57;;;;;;;3.03;1.60;;;10.00;89.20;;;;;;5025212;28;20840;-41
2021/11/02 16:18:37;;;;;;;5.70;1.57;;;10.00;89.30;;;;;;5027328;28;20869;-41
2021/11/02 16:21:06;;;;;;;1.50;1.20;;;10.00;89.30;;;;;;5024229;28;21294;-41
2021/11/02 16:23:43;;;;;;;1.60;1.27;;;10.00;89.30;;;;;;5028012;28;20547;-41
2021/11/02 16:26:20;;;;;;;1.60;1.50;;;10.00;89.40;;;;;;5008642;28;20554;-41
2021/11/02 16:28:47;;;;;;;1.90;1.63;;;10.00;89.30;;;;;;5027219;28;20893;-41
2021/11/02 16:31:26;;;;;;;3.40;2.33;;;10.00;89.40;;;;;;5028670;28;20930;-41
2021/11/02 16:33:54;;;;;;;2.67;2.47;;;10.00;89.40;;;;;;5025239;28;20457;-41
2021/11/02 16:36:24;;;;;;;1.70;1.60;;;10.00;89.40;;;;;;5030057;28;21054;-41
2021/11/02 16:38:55;;;;;;;2.60;2.33;;;9.90;89.40;;;;;;5028538;28;20459;-42
2021/11/02 16:41:33;;;;;;;2.47;2.27;;;9.90;89.50;;;;;;5011786;28;20459;-41
2021/11/02 16:44:03;;;;;;;3.10;2.87;;;10.00;89.60;;;;;;5029518;28;20451;-41
2021/11/02 16:46:35;;;;;;;3.87;3.50;;;10.00;89.60;;;;;;5025823;28;20456;-41
2021/11/02 16:49:04;;;;;;;3.37;2.70;;;10.00;89.40;;;;;;5031375;28;20514;-41
2021/11/02 16:52:07;;;;;;;2.77;2.50;;;9.90;89.50;;;;;;5008930;28;20490;-42
2021/11/02 16:54:37;;;;;;;3.00;2.70;;;9.90;89.60;;;;;;4992924;28;20833;-41
2021/11/02 16:57:08;;;;;;;3.20;3.00;;;9.90;89.60;;;;;;5019375;28;20459;-41
2021/11/02 16:59:37;;;;;;;4.20;3.90;;;9.90;89.60;;;;;;5024837;28;20466;-41
2021/11/02 17:02:16;;;;;;;4.13;3.77;;;9.90;89.70;;;;;;5027637;28;20546;-41
2021/11/02 17:05:08;;;;;;;4.20;3.90;;;9.90;89.80;;;;;;5028796;28;20464;-41
2021/11/02 17:07:39;;;;;;;3.77;3.37;;;9.90;89.80;;;;;;5020589;28;20489;-41
2021/11/02 17:10:27;;;;;;;3.57;3.27;;;9.90;89.80;;;;;;5026478;28;20493;-41
2021/11/02 17:13:14;;;;;;;3.63;2.90;;;9.90;89.80;;;;;;5004122;28;21984;-41
2021/11/02 17:15:49;;;;;;;4.63;2.80;;;9.90;89.80;;;;;;5025408;28;20467;-41
2021/11/02 17:18:38;;;;;;;2.67;2.40;;;9.90;89.80;;;;;;5024785;28;20458;-42
2021/11/02 17:21:07;;;;;;;2.73;2.53;;;9.90;89.80;;;;;;5012986;28;20561;-42
2021/11/02 17:23:35;;;;;;;3.20;2.30;;;9.90;89.80;;;;;;5020832;28;20494;-42
2021/11/02 17:26:05;;;;;;;2.97;2.77;;;9.90;89.80;;;;;;5023158;28;20554;-42
2021/11/02 17:28:34;;;;;;;4.93;3.30;;;9.90;89.80;;;;;;5025714;28;20498;-41
2021/11/02 17:31:02;;;;;;;4.80;3.00;;;9.90;89.80;;;;;;5012376;28;21052;-41
2021/11/02 17:33:30;;;;;;;3.23;2.63;;;9.90;89.80;;;;;;5027344;28;20458;-41
2021/11/02 17:35:58;;;;;;;2.80;2.60;;;9.90;89.80;;;;;;5025408;28;20468;-41
2021/11/02 17:38:25;;;;;;;4.40;3.03;;;9.90;89.80;;;;;;5023733;28;20455;-41
2021/11/02 17:40:53;;;;;;;4.47;3.60;;;9.90;89.80;;;;;;5022810;28;20598;-41
2021/11/02 17:43:24;;;;;;;3.63;3.33;;;9.90;89.80;;;;;;5028263;28;20550;-42
2021/11/02 17:45:52;;;;;;;3.80;3.20;;;9.90;89.80;;;;;;5039140;28;20523;-43
2021/11/02 17:48:20;;;;;;;4.27;3.87;;;9.90;89.80;;;;;;5042578;28;20545;-43
2021/11/02 17:50:47;;;;;;;4.50;3.80;;;9.90;89.80;;;;;;5038297;28;20491;-43
2021/11/02 17:53:15;;;;;;;4.23;3.93;;;9.90;89.80;;;;;;5020242;28;20492;-43
2021/11/02 17:55:44;;;;;;;4.20;3.80;;;9.90;89.80;;;;;;5037735;28;20967;-43
2021/11/02 17:58:11;;;;;;;4.00;3.70;;;9.90;89.80;;;;;;5045729;28;20546;-43
2021/11/02 18:00:38;;;;;;;4.43;4.03;;;9.90;89.80;;;;;;5038234;28;20491;-43
2021/11/02 18:03:27;;;;;;;4.20;3.80;;;9.90;89.80;;;;;;5042608;28;20449;-43
2021/11/02 18:06:00;;;;;;;3.93;3.30;;;9.90;89.80;;;;;;5035375;28;20545;-43
2021/11/02 18:08:29;;;;;;;5.53;4.50;;;9.90;89.80;;;;;;5036733;28;21039;-43
2021/11/02 18:10:59;;;;;;;4.50;4.10;;;9.90;89.80;;;;;;5023409;28;20835;-43